Geneva Cointrin International Airport

Airport
ICAO code: 
LSGG
IATA Code: 
GVA
Summary
ICAO Region: 
EUR
Territory: 
Location: 
Meyrin, Geneve
Serving: 
Geneva
Elevation: 
1411 ft
Coordinates: 
Aerial View: 
46° 14' 17.03" N, 6° 6' 32.22" E
Metar
Observation
LSGG 200220Z AUTO 20004KT 9999 FEW050 SCT065 OVC075 01/M03 Q1028 NOSIG
Station
Geneve-Cointrin
Date/Time
2022-01-20 02:20:00
Wind direction
200°
Wind speed
04 kts
Lowest cloud amount
few clouds
Temperature
1°C
Dew point
-3°C
Humidity
74%
QNH
1028 hPa
Weather condition
n/a

Runways

Designator Length Width Surface Rops
05L/23R 823 30 CAUTION: A No/No
5/23 3900 50 CON Yes/Yes

SKYbrary Partners:

Safety knowledge contributed by: